sensor_id;sensor_type;location;lat;lon;timestamp;pressure;altitude;pressure_sealevel;temperature;humidity
40372;BME280;28564;53.346;-6.554;2024-01-30T00:00:56;101688.10;;;4.68;48.82
40372;BME280;28564;53.346;-6.554;2024-01-30T00:03:24;101684.36;;;4.69;48.79
40372;BME280;28564;53.346;-6.554;2024-01-30T00:05:51;101686.76;;;4.65;48.80
40372;BME280;28564;53.346;-6.554;2024-01-30T00:08:18;101692.22;;;4.86;48.77
40372;BME280;28564;53.346;-6.554;2024-01-30T00:10:45;101694.81;;;4.62;48.75
40372;BME280;28564;53.346;-6.554;2024-01-30T00:13:13;101693.11;;;4.61;48.68
40372;BME280;28564;53.346;-6.554;2024-01-30T00:15:40;101696.18;;;4.55;48.70
40372;BME280;28564;53.346;-6.554;2024-01-30T00:18:07;101699.82;;;4.75;48.72
40372;BME280;28564;53.346;-6.554;2024-01-30T00:20:35;101704.72;;;4.72;48.76
40372;BME280;28564;53.346;-6.554;2024-01-30T00:23:02;101703.88;;;4.69;48.75
40372;BME280;28564;53.346;-6.554;2024-01-30T00:25:29;101708.64;;;4.44;48.76
40372;BME280;28564;53.346;-6.554;2024-01-30T00:27:57;101710.61;;;4.16;48.79
40372;BME280;28564;53.346;-6.554;2024-01-30T00:30:24;101711.65;;;4.87;48.74
40372;BME280;28564;53.346;-6.554;2024-01-30T00:32:51;101712.39;;;4.80;48.75
40372;BME280;28564;53.346;-6.554;2024-01-30T00:35:19;101712.14;;;4.49;48.75
40372;BME280;28564;53.346;-6.554;2024-01-30T00:37:46;101713.21;;;4.26;48.79
40372;BME280;28564;53.346;-6.554;2024-01-30T00:40:14;101711.30;;;4.70;48.81
40372;BME280;28564;53.346;-6.554;2024-01-30T00:42:42;101712.01;;;4.42;48.84
40372;BME280;28564;53.346;-6.554;2024-01-30T00:45:12;101716.33;;;4.36;48.95
40372;BME280;28564;53.346;-6.554;2024-01-30T00:47:39;101712.94;;;4.36;48.94
40372;BME280;28564;53.346;-6.554;2024-01-30T00:50:07;101715.76;;;4.58;49.04
40372;BME280;28564;53.346;-6.554;2024-01-30T00:52:35;101714.14;;;4.55;48.99
40372;BME280;28564;53.346;-6.554;2024-01-30T00:55:03;101715.10;;;4.54;49.04
40372;BME280;28564;53.346;-6.554;2024-01-30T00:57:30;101713.28;;;4.02;49.03
40372;BME280;28564;53.346;-6.554;2024-01-30T00:59:57;101717.37;;;4.49;49.05
40372;BME280;28564;53.346;-6.554;2024-01-30T01:02:25;101721.49;;;4.24;49.02
40372;BME280;28564;53.346;-6.554;2024-01-30T01:04:51;101726.79;;;4.22;49.08
40372;BME280;28564;53.346;-6.554;2024-01-30T01:07:18;101724.82;;;4.50;49.04
40372;BME280;28564;53.346;-6.554;2024-01-30T01:09:46;101717.27;;;4.05;48.99
40372;BME280;28564;53.346;-6.554;2024-01-30T01:12:13;101721.94;;;4.56;48.91
40372;BME280;28564;53.346;-6.554;2024-01-30T01:14:40;101726.54;;;4.54;48.84
40372;BME280;28564;53.346;-6.554;2024-01-30T01:17:07;101731.14;;;4.30;48.75
40372;BME280;28564;53.346;-6.554;2024-01-30T01:19:35;101736.03;;;4.07;48.70
40372;BME280;28564;53.346;-6.554;2024-01-30T01:22:02;101741.90;;;4.05;48.64
40372;BME280;28564;53.346;-6.554;2024-01-30T01:24:31;101747.52;;;4.50;48.66
40372;BME280;28564;53.346;-6.554;2024-01-30T01:26:59;101745.65;;;3.97;48.66
40372;BME280;28564;53.346;-6.554;2024-01-30T01:29:26;101742.39;;;4.18;48.61
40372;BME280;28564;53.346;-6.554;2024-01-30T01:31:53;101745.87;;;3.94;48.61
40372;BME280;28564;53.346;-6.554;2024-01-30T01:34:21;101745.82;;;4.39;48.62
40372;BME280;28564;53.346;-6.554;2024-01-30T01:36:48;101750.85;;;4.37;48.66
40372;BME280;28564;53.346;-6.554;2024-01-30T01:39:16;101753.99;;;4.35;48.72
40372;BME280;28564;53.346;-6.554;2024-01-30T01:41:43;101756.86;;;3.81;48.79
40372;BME280;28564;53.346;-6.554;2024-01-30T01:44:11;101762.58;;;4.29;48.81
40372;BME280;28564;53.346;-6.554;2024-01-30T01:46:38;101765.26;;;4.24;48.82
40372;BME280;28564;53.346;-6.554;2024-01-30T01:49:06;101767.69;;;4.25;48.87
40372;BME280;28564;53.346;-6.554;2024-01-30T01:51:36;101765.16;;;4.24;48.83
40372;BME280;28564;53.346;-6.554;2024-01-30T01:54:04;101766.01;;;4.20;48.86
40372;BME280;28564;53.346;-6.554;2024-01-30T01:56:33;101766.03;;;3.92;48.86
40372;BME280;28564;53.346;-6.554;2024-01-30T01:59:06;101767.35;;;4.22;48.81
40372;BME280;28564;53.346;-6.554;2024-01-30T02:01:34;101769.18;;;3.92;48.80
40372;BME280;28564;53.346;-6.554;2024-01-30T02:04:03;101772.93;;;4.17;48.83
40372;BME280;28564;53.346;-6.554;2024-01-30T02:06:32;101776.80;;;4.18;48.74
40372;BME280;28564;53.346;-6.554;2024-01-30T02:09:00;101781.11;;;3.88;48.75
40372;BME280;28564;53.346;-6.554;2024-01-30T02:11:28;101780.95;;;4.12;48.81
40372;BME280;28564;53.346;-6.554;2024-01-30T02:13:55;101780.25;;;4.07;48.86
40372;BME280;28564;53.346;-6.554;2024-01-30T02:16:23;101778.80;;;4.11;48.78
40372;BME280;28564;53.346;-6.554;2024-01-30T02:18:50;101784.82;;;4.06;48.81
40372;BME280;28564;53.346;-6.554;2024-01-30T02:21:18;101790.79;;;4.32;48.75
40372;BME280;28564;53.346;-6.554;2024-01-30T02:23:47;101795.79;;;3.83;48.70
40372;BME280;28564;53.346;-6.554;2024-01-30T02:26:15;101796.67;;;4.10;48.61
40372;BME280;28564;53.346;-6.554;2024-01-30T02:28:42;101793.49;;;3.81;48.60
40372;BME280;28564;53.346;-6.554;2024-01-30T02:31:10;101793.12;;;4.07;48.57
40372;BME280;28564;53.346;-6.554;2024-01-30T02:33:37;101799.16;;;3.55;48.64
40372;BME280;28564;53.346;-6.554;2024-01-30T02:36:05;101801.90;;;3.99;48.70
40372;BME280;28564;53.346;-6.554;2024-01-30T02:38:32;101798.28;;;3.96;48.70
40372;BME280;28564;53.346;-6.554;2024-01-30T02:40:59;101798.86;;;3.95;48.74
40372;BME280;28564;53.346;-6.554;2024-01-30T02:43:27;101804.45;;;3.92;48.72
40372;BME280;28564;53.346;-6.554;2024-01-30T02:45:54;101807.16;;;3.86;48.74
40372;BME280;28564;53.346;-6.554;2024-01-30T02:48:22;101811.31;;;4.05;48.73
40372;BME280;28564;53.346;-6.554;2024-01-30T02:50:49;101810.19;;;3.83;48.66
40372;BME280;28564;53.346;-6.554;2024-01-30T02:53:16;101809.12;;;3.81;48.63
40372;BME280;28564;53.346;-6.554;2024-01-30T02:55:44;101809.53;;;3.76;48.61
40372;BME280;28564;53.346;-6.554;2024-01-30T02:58:11;101810.01;;;3.70;48.59
40372;BME280;28564;53.346;-6.554;2024-01-30T03:00:39;101808.59;;;3.62;48.65
40372;BME280;28564;53.346;-6.554;2024-01-30T03:03:06;101815.45;;;3.59;48.63
40372;BME280;28564;53.346;-6.554;2024-01-30T03:05:33;101816.59;;;3.53;48.66
40372;BME280;28564;53.346;-6.554;2024-01-30T03:08:01;101820.07;;;3.51;48.67
40372;BME280;28564;53.346;-6.554;2024-01-30T03:10:28;101820.16;;;3.45;48.68
40372;BME280;28564;53.346;-6.554;2024-01-30T03:12:55;101819.92;;;3.46;48.64
40372;BME280;28564;53.346;-6.554;2024-01-30T03:15:23;101821.78;;;3.44;48.64
40372;BME280;28564;53.346;-6.554;2024-01-30T03:17:50;101820.43;;;3.38;48.70
40372;BME280;28564;53.346;-6.554;2024-01-30T03:20:18;101826.10;;;3.77;48.72
40372;BME280;28564;53.346;-6.554;2024-01-30T03:22:45;101828.13;;;3.27;48.74
40372;BME280;28564;53.346;-6.554;2024-01-30T03:25:12;101835.64;;;3.51;48.76
40372;BME280;28564;53.346;-6.554;2024-01-30T03:27:40;101837.76;;;3.27;48.70
40372;BME280;28564;53.346;-6.554;2024-01-30T03:30:09;101842.96;;;3.20;48.74
40372;BME280;28564;53.346;-6.554;2024-01-30T03:32:36;101849.60;;;3.64;48.70
40372;BME280;28564;53.346;-6.554;2024-01-30T03:35:04;101847.83;;;3.57;48.78
40372;BME280;28564;53.346;-6.554;2024-01-30T03:37:31;101848.27;;;3.35;48.77
40372;BME280;28564;53.346;-6.554;2024-01-30T03:39:58;101850.68;;;3.07;48.79
40372;BME280;28564;53.346;-6.554;2024-01-30T03:42:26;101847.71;;;3.05;48.83
40372;BME280;28564;53.346;-6.554;2024-01-30T03:44:53;101846.08;;;3.25;48.83
40372;BME280;28564;53.346;-6.554;2024-01-30T03:47:21;101849.98;;;3.28;48.84
40372;BME280;28564;53.346;-6.554;2024-01-30T03:49:48;101854.28;;;3.29;48.79
40372;BME280;28564;53.346;-6.554;2024-01-30T03:52:15;101852.44;;;3.44;48.80
40372;BME280;28564;53.346;-6.554;2024-01-30T03:54:43;101857.04;;;3.18;48.81
40372;BME280;28564;53.346;-6.554;2024-01-30T03:57:10;101861.46;;;3.10;48.84
40372;BME280;28564;53.346;-6.554;2024-01-30T03:59:38;101862.44;;;2.85;48.84
40372;BME280;28564;53.346;-6.554;2024-01-30T04:02:09;101871.11;;;3.23;48.95
40372;BME280;28564;53.346;-6.554;2024-01-30T04:04:36;101867.29;;;3.23;48.88
40372;BME280;28564;53.346;-6.554;2024-01-30T04:07:04;101870.46;;;3.00;48.85
40372;BME280;28564;53.346;-6.554;2024-01-30T04:09:31;101880.79;;;3.19;48.85
40372;BME280;28564;53.346;-6.554;2024-01-30T04:11:58;101877.01;;;2.85;48.97
40372;BME280;28564;53.346;-6.554;2024-01-30T04:14:26;101878.23;;;3.08;49.01
40372;BME280;28564;53.346;-6.554;2024-01-30T04:16:53;101878.01;;;3.07;49.04
40372;BME280;28564;53.346;-6.554;2024-01-30T04:19:21;101882.51;;;3.02;49.11
40372;BME280;28564;53.346;-6.554;2024-01-30T04:21:48;101887.53;;;2.99;49.12
40372;BME280;28564;53.346;-6.554;2024-01-30T04:24:16;101891.04;;;2.97;49.18
40372;BME280;28564;53.346;-6.554;2024-01-30T04:26:43;101893.95;;;2.95;49.19
40372;BME280;28564;53.346;-6.554;2024-01-30T04:29:11;101893.11;;;2.95;49.17
40372;BME280;28564;53.346;-6.554;2024-01-30T04:31:38;101896.00;;;2.99;49.10
40372;BME280;28564;53.346;-6.554;2024-01-30T04:34:06;101898.35;;;3.01;49.03
40372;BME280;28564;53.346;-6.554;2024-01-30T04:36:33;101896.79;;;3.02;48.98
40372;BME280;28564;53.346;-6.554;2024-01-30T04:39:00;101898.61;;;3.06;48.92
40372;BME280;28564;53.346;-6.554;2024-01-30T04:41:28;101908.69;;;3.06;48.83
40372;BME280;28564;53.346;-6.554;2024-01-30T04:43:56;101914.52;;;3.05;48.85
40372;BME280;28564;53.346;-6.554;2024-01-30T04:46:23;101913.95;;;2.84;48.79
40372;BME280;28564;53.346;-6.554;2024-01-30T04:48:50;101917.16;;;3.01;48.82
40372;BME280;28564;53.346;-6.554;2024-01-30T04:51:18;101919.80;;;3.07;48.68
40372;BME280;28564;53.346;-6.554;2024-01-30T04:53:46;101919.10;;;3.05;48.64
40372;BME280;28564;53.346;-6.554;2024-01-30T04:56:13;101922.37;;;3.05;48.59
40372;BME280;28564;53.346;-6.554;2024-01-30T04:58:40;101924.01;;;3.03;48.58
40372;BME280;28564;53.346;-6.554;2024-01-30T05:01:08;101919.29;;;3.03;48.53
40372;BME280;28564;53.346;-6.554;2024-01-30T05:03:35;101926.38;;;2.81;48.56
40372;BME280;28564;53.346;-6.554;2024-01-30T05:06:03;101933.70;;;3.02;48.59
40372;BME280;28564;53.346;-6.554;2024-01-30T05:08:30;101938.45;;;2.81;48.67
40372;BME280;28564;53.346;-6.554;2024-01-30T05:11:00;101946.09;;;2.98;48.85
40372;BME280;28564;53.346;-6.554;2024-01-30T05:13:27;101944.01;;;2.74;48.94
40372;BME280;28564;53.346;-6.554;2024-01-30T05:15:54;101947.85;;;2.94;49.01
40372;BME280;28564;53.346;-6.554;2024-01-30T05:18:22;101953.06;;;2.71;49.13
40372;BME280;28564;53.346;-6.554;2024-01-30T05:20:50;101955.29;;;2.92;49.28
40372;BME280;28564;53.346;-6.554;2024-01-30T05:23:17;101956.69;;;2.91;49.42
40372;BME280;28564;53.346;-6.554;2024-01-30T05:25:45;101958.59;;;2.94;49.37
40372;BME280;28564;53.346;-6.554;2024-01-30T05:28:12;101962.35;;;2.94;49.46
40372;BME280;28564;53.346;-6.554;2024-01-30T05:30:40;101966.40;;;2.71;49.53
40372;BME280;28564;53.346;-6.554;2024-01-30T05:33:07;101970.02;;;2.73;49.62
40372;BME280;28564;53.346;-6.554;2024-01-30T05:35:34;101969.29;;;3.01;49.29
40372;BME280;28564;53.346;-6.554;2024-01-30T05:38:02;101970.27;;;2.81;49.07
40372;BME280;28564;53.346;-6.554;2024-01-30T05:40:29;101973.15;;;3.02;49.08
40372;BME280;28564;53.346;-6.554;2024-01-30T05:42:57;101979.38;;;2.82;48.93
40372;BME280;28564;53.346;-6.554;2024-01-30T05:45:24;101979.07;;;2.80;48.83
40372;BME280;28564;53.346;-6.554;2024-01-30T05:47:52;101985.77;;;2.93;48.89
40372;BME280;28564;53.346;-6.554;2024-01-30T05:50:19;101989.75;;;2.98;48.77
40372;BME280;28564;53.346;-6.554;2024-01-30T05:52:46;101995.53;;;3.01;48.75
40372;BME280;28564;53.346;-6.554;2024-01-30T05:55:14;101996.58;;;2.69;48.89
40372;BME280;28564;53.346;-6.554;2024-01-30T05:57:41;102003.22;;;2.81;49.09
40372;BME280;28564;53.346;-6.554;2024-01-30T06:00:10;102011.17;;;2.50;49.20
40372;BME280;28564;53.346;-6.554;2024-01-30T06:02:37;102015.24;;;2.70;49.27
40372;BME280;28564;53.346;-6.554;2024-01-30T06:05:05;102015.09;;;2.63;49.34
40372;BME280;28564;53.346;-6.554;2024-01-30T06:07:32;102014.80;;;2.65;49.27
40372;BME280;28564;53.346;-6.554;2024-01-30T06:10:00;102018.59;;;2.62;49.34
40372;BME280;28564;53.346;-6.554;2024-01-30T06:12:27;102017.68;;;2.64;49.22
40372;BME280;28564;53.346;-6.554;2024-01-30T06:14:55;102020.19;;;2.62;49.21
40372;BME280;28564;53.346;-6.554;2024-01-30T06:17:22;102025.32;;;2.64;49.17
40372;BME280;28564;53.346;-6.554;2024-01-30T06:19:50;102026.70;;;2.63;49.07
40372;BME280;28564;53.346;-6.554;2024-01-30T06:22:17;102032.03;;;2.62;48.98
40372;BME280;28564;53.346;-6.554;2024-01-30T06:24:45;102034.01;;;2.63;48.91
40372;BME280;28564;53.346;-6.554;2024-01-30T06:27:12;102039.15;;;2.58;49.00
40372;BME280;28564;53.346;-6.554;2024-01-30T06:29:40;102041.63;;;2.54;49.05
40372;BME280;28564;53.346;-6.554;2024-01-30T06:32:08;102043.03;;;2.46;49.28
40372;BME280;28564;53.346;-6.554;2024-01-30T06:34:35;102046.28;;;2.42;49.34
40372;BME280;28564;53.346;-6.554;2024-01-30T06:37:03;102050.52;;;2.44;49.29
40372;BME280;28564;53.346;-6.554;2024-01-30T06:39:30;102051.06;;;2.45;49.20
40372;BME280;28564;53.346;-6.554;2024-01-30T06:41:58;102055.80;;;2.47;49.11
40372;BME280;28564;53.346;-6.554;2024-01-30T06:44:26;102058.52;;;2.46;49.08
40372;BME280;28564;53.346;-6.554;2024-01-30T06:46:54;102058.00;;;2.42;49.11
40372;BME280;28564;53.346;-6.554;2024-01-30T06:49:21;102061.92;;;2.16;49.25
40372;BME280;28564;53.346;-6.554;2024-01-30T06:51:49;102060.61;;;2.36;49.32
40372;BME280;28564;53.346;-6.554;2024-01-30T06:54:16;102065.24;;;2.32;49.46
40372;BME280;28564;53.346;-6.554;2024-01-30T06:56:44;102067.76;;;2.12;49.50
40372;BME280;28564;53.346;-6.554;2024-01-30T06:59:11;102072.18;;;2.29;49.74
40372;BME280;28564;53.346;-6.554;2024-01-30T07:01:39;102076.12;;;2.27;49.88
40372;BME280;28564;53.346;-6.554;2024-01-30T07:04:06;102080.21;;;2.28;50.49
40372;BME280;28564;53.346;-6.554;2024-01-30T07:06:34;102081.06;;;2.37;50.13
40372;BME280;28564;53.346;-6.554;2024-01-30T07:09:01;102083.43;;;2.32;50.33
40372;BME280;28564;53.346;-6.554;2024-01-30T07:11:28;102084.55;;;2.37;50.09
40372;BME280;28564;53.346;-6.554;2024-01-30T07:13:56;102086.37;;;2.37;50.10
40372;BME280;28564;53.346;-6.554;2024-01-30T07:16:23;102089.21;;;2.41;49.92
40372;BME280;28564;53.346;-6.554;2024-01-30T07:18:51;102089.68;;;2.43;49.76
40372;BME280;28564;53.346;-6.554;2024-01-30T07:21:18;102093.86;;;2.46;49.61
40372;BME280;28564;53.346;-6.554;2024-01-30T07:23:45;102094.79;;;2.47;49.39
40372;BME280;28564;53.346;-6.554;2024-01-30T07:26:13;102097.89;;;2.47;49.31
40372;BME280;28564;53.346;-6.554;2024-01-30T07:28:40;102098.89;;;2.47;49.23
40372;BME280;28564;53.346;-6.554;2024-01-30T07:31:08;102104.74;;;2.47;49.20
40372;BME280;28564;53.346;-6.554;2024-01-30T07:33:35;102110.55;;;2.47;49.19
40372;BME280;28564;53.346;-6.554;2024-01-30T07:36:03;102120.50;;;2.36;49.55
40372;BME280;28564;53.346;-6.554;2024-01-30T07:38:32;102126.71;;;2.41;49.67
40372;BME280;28564;53.346;-6.554;2024-01-30T07:41:00;102131.71;;;2.15;49.75
40372;BME280;28564;53.346;-6.554;2024-01-30T07:43:27;102137.77;;;2.40;49.90
40372;BME280;28564;53.346;-6.554;2024-01-30T07:45:54;102137.34;;;2.39;49.91
40372;BME280;28564;53.346;-6.554;2024-01-30T07:48:22;102137.89;;;2.33;50.19
40372;BME280;28564;53.346;-6.554;2024-01-30T07:50:50;102143.11;;;2.37;50.05
40372;BME280;28564;53.346;-6.554;2024-01-30T07:53:18;102147.67;;;2.41;50.10
40372;BME280;28564;53.346;-6.554;2024-01-30T07:55:48;102156.28;;;2.42;50.11
40372;BME280;28564;53.346;-6.554;2024-01-30T07:58:16;102155.88;;;2.44;50.16
40372;BME280;28564;53.346;-6.554;2024-01-30T08:00:43;102150.84;;;2.51;50.07
40372;BME280;28564;53.346;-6.554;2024-01-30T08:03:11;102150.96;;;2.56;50.08
40372;BME280;28564;53.346;-6.554;2024-01-30T08:05:38;102152.99;;;2.58;49.96
40372;BME280;28564;53.346;-6.554;2024-01-30T08:08:06;102155.16;;;2.57;50.00
40372;BME280;28564;53.346;-6.554;2024-01-30T08:10:33;102160.18;;;2.52;50.04
40372;BME280;28564;53.346;-6.554;2024-01-30T08:13:00;102162.91;;;2.49;50.10
40372;BME280;28564;53.346;-6.554;2024-01-30T08:15:28;102163.79;;;2.56;50.08
40372;BME280;28564;53.346;-6.554;2024-01-30T08:17:54;102163.40;;;2.57;50.38
40372;BME280;28564;53.346;-6.554;2024-01-30T08:20:22;102165.28;;;2.57;50.14
40372;BME280;28564;53.346;-6.554;2024-01-30T08:22:49;102175.68;;;2.63;49.90
40372;BME280;28564;53.346;-6.554;2024-01-30T08:25:17;102178.88;;;2.64;49.80
40372;BME280;28564;53.346;-6.554;2024-01-30T08:27:44;102185.55;;;2.66;49.69
40372;BME280;28564;53.346;-6.554;2024-01-30T08:30:12;102191.59;;;2.43;49.83
40372;BME280;28564;53.346;-6.554;2024-01-30T08:32:39;102194.34;;;2.73;49.69
40372;BME280;28564;53.346;-6.554;2024-01-30T08:35:07;102195.38;;;2.53;49.66
40372;BME280;28564;53.346;-6.554;2024-01-30T08:37:34;102196.31;;;2.60;49.65
40372;BME280;28564;53.346;-6.554;2024-01-30T08:40:01;102197.99;;;2.91;49.75
40372;BME280;28564;53.346;-6.554;2024-01-30T08:42:29;102192.13;;;2.97;49.68
40372;BME280;28564;53.346;-6.554;2024-01-30T08:44:56;102191.33;;;3.00;49.65
40372;BME280;28564;53.346;-6.554;2024-01-30T08:47:23;102193.76;;;2.84;49.61
40372;BME280;28564;53.346;-6.554;2024-01-30T08:49:51;102199.31;;;3.16;49.51
40372;BME280;28564;53.346;-6.554;2024-01-30T08:52:18;102206.35;;;3.20;49.49
40372;BME280;28564;53.346;-6.554;2024-01-30T08:54:46;102211.09;;;3.01;49.53
40372;BME280;28564;53.346;-6.554;2024-01-30T08:57:13;102213.78;;;2.87;49.57
40372;BME280;28564;53.346;-6.554;2024-01-30T08:59:40;102218.36;;;3.27;49.63
40372;BME280;28564;53.346;-6.554;2024-01-30T09:02:08;102222.20;;;3.41;49.48
40372;BME280;28564;53.346;-6.554;2024-01-30T09:04:35;102232.57;;;3.45;49.46
40372;BME280;28564;53.346;-6.554;2024-01-30T09:07:03;102242.36;;;3.63;49.41
40372;BME280;28564;53.346;-6.554;2024-01-30T09:09:30;102249.44;;;3.57;49.31
40372;BME280;28564;53.346;-6.554;2024-01-30T09:11:58;102252.88;;;3.67;49.29
40372;BME280;28564;53.346;-6.554;2024-01-30T09:14:25;102251.57;;;3.80;49.10
40372;BME280;28564;53.346;-6.554;2024-01-30T09:16:53;102251.74;;;3.89;48.88
40372;BME280;28564;53.346;-6.554;2024-01-30T09:19:20;102252.63;;;3.76;48.79
40372;BME280;28564;53.346;-6.554;2024-01-30T09:21:47;102254.38;;;4.19;48.73
40372;BME280;28564;53.346;-6.554;2024-01-30T09:24:15;102256.16;;;4.28;48.45
40372;BME280;28564;53.346;-6.554;2024-01-30T09:26:42;102255.62;;;4.45;48.38
40372;BME280;28564;53.346;-6.554;2024-01-30T09:29:09;102259.63;;;4.57;48.26
40372;BME280;28564;53.346;-6.554;2024-01-30T09:31:37;102264.98;;;4.28;47.92
40372;BME280;28564;53.346;-6.554;2024-01-30T09:34:04;102263.45;;;4.13;47.94
40372;BME280;28564;53.346;-6.554;2024-01-30T09:36:32;102269.79;;;4.47;48.28
40372;BME280;28564;53.346;-6.554;2024-01-30T09:38:59;102276.10;;;4.43;48.06
40372;BME280;28564;53.346;-6.554;2024-01-30T09:41:27;102283.43;;;4.46;47.82
40372;BME280;28564;53.346;-6.554;2024-01-30T09:43:57;102277.36;;;4.75;47.63
40372;BME280;28564;53.346;-6.554;2024-01-30T09:46:27;102279.51;;;4.53;47.57
40372;BME280;28564;53.346;-6.554;2024-01-30T09:48:55;102276.22;;;4.38;47.46
40372;BME280;28564;53.346;-6.554;2024-01-30T09:51:25;102279.16;;;4.42;47.58
40372;BME280;28564;53.346;-6.554;2024-01-30T09:53:54;102274.35;;;4.45;47.82
40372;BME280;28564;53.346;-6.554;2024-01-30T09:56:22;102271.90;;;4.66;47.86
40372;BME280;28564;53.346;-6.554;2024-01-30T09:58:49;102279.64;;;4.89;47.64
40372;BME280;28564;53.346;-6.554;2024-01-30T10:01:17;102282.48;;;4.96;47.54
40372;BME280;28564;53.346;-6.554;2024-01-30T10:03:45;102279.23;;;5.13;47.56
40372;BME280;28564;53.346;-6.554;2024-01-30T10:06:12;102282.77;;;5.06;47.49
40372;BME280;28564;53.346;-6.554;2024-01-30T10:08:39;102282.42;;;5.63;47.21
40372;BME280;28564;53.346;-6.554;2024-01-30T10:11:07;102284.26;;;5.58;47.08
40372;BME280;28564;53.346;-6.554;2024-01-30T10:13:34;102287.32;;;5.52;46.94
40372;BME280;28564;53.346;-6.554;2024-01-30T10:16:01;102283.74;;;5.90;46.59
40372;BME280;28564;53.346;-6.554;2024-01-30T10:18:29;102288.01;;;5.71;46.49
40372;BME280;28564;53.346;-6.554;2024-01-30T10:20:56;102294.81;;;5.73;46.36
40372;BME280;28564;53.346;-6.554;2024-01-30T10:23:24;102293.40;;;5.75;46.22
40372;BME280;28564;53.346;-6.554;2024-01-30T10:25:51;102287.50;;;5.65;46.22
40372;BME280;28564;53.346;-6.554;2024-01-30T10:28:18;102286.20;;;5.66;46.41
40372;BME280;28564;53.346;-6.554;2024-01-30T10:30:45;102285.35;;;5.68;46.44
40372;BME280;28564;53.346;-6.554;2024-01-30T10:33:13;102285.82;;;5.76;46.39
40372;BME280;28564;53.346;-6.554;2024-01-30T10:35:40;102287.72;;;5.79;46.63
40372;BME280;28564;53.346;-6.554;2024-01-30T10:38:09;102294.18;;;5.85;46.53
40372;BME280;28564;53.346;-6.554;2024-01-30T10:40:40;102300.63;;;5.91;46.55
40372;BME280;28564;53.346;-6.554;2024-01-30T10:43:11;102305.45;;;5.89;46.60
40372;BME280;28564;53.346;-6.554;2024-01-30T10:45:40;102306.01;;;5.86;46.73
40372;BME280;28564;53.346;-6.554;2024-01-30T10:48:09;102305.86;;;6.00;46.78
40372;BME280;28564;53.346;-6.554;2024-01-30T10:50:39;102306.64;;;5.86;47.07
40372;BME280;28564;53.346;-6.554;2024-01-30T10:53:08;102313.32;;;5.56;47.19
40372;BME280;28564;53.346;-6.554;2024-01-30T10:55:37;102314.90;;;5.77;47.40
40372;BME280;28564;53.346;-6.554;2024-01-30T10:58:06;102309.67;;;5.85;47.59
40372;BME280;28564;53.346;-6.554;2024-01-30T11:00:33;102311.68;;;6.04;47.55
40372;BME280;28564;53.346;-6.554;2024-01-30T11:03:00;102312.48;;;5.95;47.39
40372;BME280;28564;53.346;-6.554;2024-01-30T11:05:28;102311.05;;;6.13;47.58
40372;BME280;28564;53.346;-6.554;2024-01-30T11:07:55;102317.25;;;6.34;47.59
40372;BME280;28564;53.346;-6.554;2024-01-30T11:10:25;102322.88;;;6.33;47.72
40372;BME280;28564;53.346;-6.554;2024-01-30T11:12:52;102332.05;;;6.41;47.08
40372;BME280;28564;53.346;-6.554;2024-01-30T11:15:20;102332.21;;;6.53;46.88
40372;BME280;28564;53.346;-6.554;2024-01-30T11:17:51;102329.11;;;6.52;46.77
40372;BME280;28564;53.346;-6.554;2024-01-30T11:20:21;102328.05;;;6.85;46.98
40372;BME280;28564;53.346;-6.554;2024-01-30T11:22:51;102325.72;;;6.58;46.83
40372;BME280;28564;53.346;-6.554;2024-01-30T11:25:20;102323.13;;;6.95;46.87
40372;BME280;28564;53.346;-6.554;2024-01-30T11:27:50;102323.24;;;6.85;46.76
40372;BME280;28564;53.346;-6.554;2024-01-30T11:30:26;102324.89;;;7.04;46.61
40372;BME280;28564;53.346;-6.554;2024-01-30T11:33:02;102324.77;;;7.24;46.37
40372;BME280;28564;53.346;-6.554;2024-01-30T11:35:32;102323.32;;;7.37;46.29
40372;BME280;28564;53.346;-6.554;2024-01-30T11:38:00;102331.42;;;7.53;46.07
40372;BME280;28564;53.346;-6.554;2024-01-30T11:40:28;102333.16;;;7.13;45.88
40372;BME280;28564;53.346;-6.554;2024-01-30T11:42:56;102331.05;;;7.54;45.84
40372;BME280;28564;53.346;-6.554;2024-01-30T11:45:26;102327.65;;;7.49;45.93
40372;BME280;28564;53.346;-6.554;2024-01-30T11:47:53;102322.03;;;7.43;46.05
40372;BME280;28564;53.346;-6.554;2024-01-30T11:50:21;102316.44;;;7.33;46.07
40372;BME280;28564;53.346;-6.554;2024-01-30T11:52:49;102319.19;;;7.19;46.33
40372;BME280;28564;53.346;-6.554;2024-01-30T11:55:17;102317.86;;;7.15;46.40
40372;BME280;28564;53.346;-6.554;2024-01-30T11:57:44;102315.68;;;7.39;46.58
40372;BME280;28564;53.346;-6.554;2024-01-30T12:00:15;102307.06;;;7.23;46.87
40372;BME280;28564;53.346;-6.554;2024-01-30T12:02:43;102300.67;;;7.38;47.17
40372;BME280;28564;53.346;-6.554;2024-01-30T12:05:11;102298.53;;;7.61;47.40
40372;BME280;28564;53.346;-6.554;2024-01-30T12:07:38;102300.32;;;7.79;47.51
40372;BME280;28564;53.346;-6.554;2024-01-30T12:10:06;102301.70;;;8.00;47.36
40372;BME280;28564;53.346;-6.554;2024-01-30T12:12:35;102301.19;;;7.91;47.13
40372;BME280;28564;53.346;-6.554;2024-01-30T12:15:04;102291.37;;;8.18;47.00
40372;BME280;28564;53.346;-6.554;2024-01-30T12:17:33;102287.67;;;7.77;46.79
40372;BME280;28564;53.346;-6.554;2024-01-30T12:20:05;102285.60;;;8.04;46.78
40372;BME280;28564;53.346;-6.554;2024-01-30T12:22:35;102282.43;;;7.93;46.70
40372;BME280;28564;53.346;-6.554;2024-01-30T12:25:04;102280.62;;;8.29;46.69
40372;BME280;28564;53.346;-6.554;2024-01-30T12:27:31;102284.99;;;8.16;46.51
40372;BME280;28564;53.346;-6.554;2024-01-30T12:29:58;102284.67;;;8.25;46.56
40372;BME280;28564;53.346;-6.554;2024-01-30T12:32:26;102287.58;;;8.29;46.62
40372;BME280;28564;53.346;-6.554;2024-01-30T12:34:55;102281.79;;;8.38;46.48
40372;BME280;28564;53.346;-6.554;2024-01-30T12:37:24;102276.78;;;8.46;46.40
40372;BME280;28564;53.346;-6.554;2024-01-30T12:39:52;102277.29;;;8.51;46.43
40372;BME280;28564;53.346;-6.554;2024-01-30T12:42:19;102276.55;;;8.63;46.46
40372;BME280;28564;53.346;-6.554;2024-01-30T12:44:47;102276.27;;;8.88;46.42
40372;BME280;28564;53.346;-6.554;2024-01-30T12:47:15;102271.73;;;9.41;46.24
40372;BME280;28564;53.346;-6.554;2024-01-30T12:49:42;102272.26;;;9.67;46.02
40372;BME280;28564;53.346;-6.554;2024-01-30T12:52:09;102274.53;;;10.63;44.67